Time;durP1;ratioP1;P1;durP2;ratioP2;P2;SDS_P1;SDS_P2;PMS_P1;PMS_P2;Temp;Humidity;BMP_temperature;BMP_pressure;BME280_temperature;BME280_humidity;BME280_pressure;Samples;Min_cycle;Max_cycle;Signal;HPM_P1;HPM_P2
2022/04/21 00:00:37;;;;;;;5.13;1.20;;;10.20;63.00;;;;;;5038303;28;20389;-64
2022/04/21 00:03:05;;;;;;;4.32;1.70;;;10.10;63.10;;;;;;5047681;28;20049;-66
2022/04/21 00:05:33;;;;;;;1.50;0.88;;;10.20;63.10;;;;;;5044259;28;20048;-65
2022/04/21 00:08:00;;;;;;;3.22;1.58;;;10.10;63.20;;;;;;5043693;28;20037;-65
2022/04/21 00:10:29;;;;;;;4.07;0.98;;;10.10;63.40;;;;;;5046737;28;20130;-65
2022/04/21 00:12:57;;;;;;;2.80;0.95;;;10.00;63.70;;;;;;5026351;28;20059;-65
2022/04/21 00:15:26;;;;;;;2.90;1.17;;;9.90;63.70;;;;;;5044676;28;20153;-64
2022/04/21 00:17:53;;;;;;;2.83;1.05;;;9.90;63.90;;;;;;5029623;28;20049;-67
2022/04/21 00:20:20;;;;;;;2.85;0.90;;;9.80;64.00;;;;;;5032604;28;20480;-65
2022/04/21 00:25:31;;;;;;;2.58;1.02;;;9.80;64.20;;;;;;5044997;28;20100;-66
2022/04/21 00:27:58;;;;;;;1.90;0.88;;;9.70;64.30;;;;;;5045540;28;20079;-65
2022/04/21 00:30:27;;;;;;;2.70;1.25;;;9.70;64.50;;;;;;5045574;28;20050;-66
2022/04/21 00:32:54;;;;;;;2.95;1.48;;;9.70;64.50;;;;;;5046668;28;20076;-65
2022/04/21 00:35:21;;;;;;;3.17;1.17;;;9.70;64.70;;;;;;5046074;28;20395;-65
2022/04/21 00:37:49;;;;;;;3.53;1.40;;;9.70;64.60;;;;;;5047090;28;20048;-65
2022/04/21 00:40:18;;;;;;;3.28;1.33;;;9.70;64.40;;;;;;5046384;28;20037;-65
2022/04/21 00:42:45;;;;;;;2.85;1.17;;;9.70;64.40;;;;;;5047540;28;20048;-64
2022/04/21 00:45:13;;;;;;;2.63;1.10;;;9.70;64.60;;;;;;5046944;28;20065;-65
2022/04/21 00:47:44;;;;;;;4.40;1.45;;;9.60;64.90;;;;;;5049223;28;20041;-66
2022/04/21 00:50:14;;;;;;;4.05;1.30;;;9.60;64.90;;;;;;5049260;28;20048;-66
2022/04/21 00:52:41;;;;;;;3.10;1.48;;;9.60;65.00;;;;;;5040997;28;20049;-65
2022/04/21 00:55:10;;;;;;;2.10;1.00;;;9.50;65.10;;;;;;5047818;28;20055;-65
2022/04/21 00:57:39;;;;;;;1.52;0.85;;;9.50;65.20;;;;;;5043472;28;20048;-64
2022/04/21 01:00:07;;;;;;;2.15;0.90;;;9.40;65.40;;;;;;5026971;28;20056;-65
2022/04/21 01:02:50;;;;;;;3.90;1.50;;;9.40;65.40;;;;;;5040124;28;20071;-64
2022/04/21 01:05:26;;;;;;;2.03;1.13;;;9.40;65.50;;;;;;5047019;28;20394;-65
2022/04/21 01:07:54;;;;;;;2.22;1.20;;;9.30;65.50;;;;;;5045131;28;20045;-64
2022/04/21 01:10:22;;;;;;;1.27;0.70;;;9.30;65.60;;;;;;5034358;28;20048;-65
2022/04/21 01:13:12;;;;;;;2.88;1.08;;;9.30;65.60;;;;;;5036343;28;20123;-65
2022/04/21 01:15:40;;;;;;;2.47;1.08;;;9.30;65.60;;;;;;5044341;28;20567;-64
2022/04/21 01:18:08;;;;;;;3.45;0.80;;;9.20;65.60;;;;;;5043059;28;20049;-65
2022/04/21 01:20:37;;;;;;;1.98;1.00;;;9.20;65.60;;;;;;5042765;28;20040;-64
2022/04/21 01:23:04;;;;;;;1.58;0.80;;;9.20;65.60;;;;;;5046211;28;20069;-65
2022/04/21 01:25:37;;;;;;;2.17;0.90;;;9.10;65.90;;;;;;5028479;28;20144;-65
2022/04/21 01:28:06;;;;;;;2.97;0.93;;;9.10;66.00;;;;;;5040459;28;20132;-65
2022/04/21 01:30:33;;;;;;;1.55;0.75;;;9.10;66.10;;;;;;5040181;28;20037;-66
2022/04/21 01:33:00;;;;;;;2.13;0.88;;;9.10;66.20;;;;;;5039764;28;20077;-65
2022/04/21 01:35:28;;;;;;;1.67;0.85;;;9.10;66.30;;;;;;5034714;28;20136;-65
2022/04/21 01:43:25;;;;;;;2.40;0.90;;;9.00;66.50;;;;;;5046916;28;20037;-65
2022/04/21 01:45:52;;;;;;;2.25;1.38;;;9.00;66.50;;;;;;5044492;28;20138;-63
2022/04/21 01:48:19;;;;;;;1.98;1.08;;;9.00;66.50;;;;;;5028033;28;20490;-64
2022/04/21 01:50:46;;;;;;;2.45;1.08;;;9.00;66.70;;;;;;5043339;28;20489;-66
2022/04/21 01:53:15;;;;;;;3.40;1.00;;;8.90;66.80;;;;;;5034629;28;20186;-65
2022/04/21 01:55:42;;;;;;;2.67;1.08;;;8.90;66.80;;;;;;5034458;28;20056;-65
2022/04/21 01:58:09;;;;;;;4.60;1.35;;;8.90;66.90;;;;;;5034716;28;20056;-64
2022/04/21 02:00:36;;;;;;;4.38;1.70;;;8.90;66.90;;;;;;5041353;28;20047;-65
2022/04/21 02:03:04;;;;;;;2.88;1.38;;;8.90;67.00;;;;;;5039495;28;22698;-66
2022/04/21 02:05:31;;;;;;;2.28;1.15;;;8.80;67.20;;;;;;5046211;28;20119;-66
2022/04/21 02:07:58;;;;;;;2.92;1.17;;;8.80;67.40;;;;;;5046023;28;20043;-66
2022/04/21 02:10:27;;;;;;;3.53;1.35;;;8.80;67.40;;;;;;5036159;28;20049;-66
2022/04/21 02:12:54;;;;;;;2.63;1.02;;;8.70;67.40;;;;;;5050004;28;20431;-64
2022/04/21 02:15:21;;;;;;;5.28;1.05;;;8.80;67.40;;;;;;5037333;28;20720;-66
2022/04/21 02:17:48;;;;;;;2.38;1.10;;;8.80;67.40;;;;;;5036905;28;20045;-65
2022/04/21 02:20:16;;;;;;;1.38;0.82;;;8.70;67.40;;;;;;5039483;28;20159;-65
2022/04/21 02:22:44;;;;;;;2.63;1.23;;;8.70;67.40;;;;;;5038408;28;20111;-64
2022/04/21 02:25:12;;;;;;;2.88;1.08;;;8.60;67.50;;;;;;5034489;28;20033;-66
2022/04/21 02:27:43;;;;;;;2.55;1.05;;;8.70;67.60;;;;;;5038095;28;20040;-65
2022/04/21 02:30:12;;;;;;;2.42;0.80;;;8.60;67.70;;;;;;5037248;28;20041;-65
2022/04/21 02:32:40;;;;;;;2.05;1.00;;;8.60;67.70;;;;;;5039031;28;20041;-65
2022/04/21 02:35:08;;;;;;;2.35;1.00;;;8.60;67.60;;;;;;5039139;28;20049;-67
2022/04/21 02:37:39;;;;;;;2.75;1.30;;;8.60;67.70;;;;;;5041450;28;20430;-65
2022/04/21 02:40:08;;;;;;;2.85;1.10;;;8.60;67.80;;;;;;5040946;28;20072;-65
2022/04/21 02:42:38;;;;;;;3.05;1.00;;;8.60;67.80;;;;;;5022342;28;20653;-65
2022/04/21 02:45:08;;;;;;;1.60;0.90;;;8.50;67.90;;;;;;5018960;28;20073;-65
2022/04/21 02:47:36;;;;;;;2.92;1.13;;;8.40;68.10;;;;;;5023794;28;20069;-65
2022/04/21 02:50:03;;;;;;;2.30;1.10;;;8.40;68.20;;;;;;4999563;28;20491;-64
2022/04/21 02:52:30;;;;;;;2.42;1.00;;;8.50;68.10;;;;;;5023639;28;20050;-65
2022/04/21 02:57:54;;;;;;;1.50;0.80;;;8.40;68.20;;;;;;4941032;28;20043;-64
2022/04/21 03:00:22;;;;;;;2.80;0.90;;;8.40;68.50;;;;;;4999493;28;20137;-65
2022/04/21 03:02:50;;;;;;;2.75;0.95;;;8.40;68.50;;;;;;5022182;28;20075;-64
2022/04/21 03:05:17;;;;;;;1.73;0.90;;;8.40;68.60;;;;;;5013648;28;21365;-64
2022/04/21 03:07:44;;;;;;;2.20;0.98;;;8.50;68.80;;;;;;5018878;28;20051;-65
2022/04/21 03:10:11;;;;;;;2.85;0.95;;;8.50;68.90;;;;;;5017749;28;20065;-64
2022/04/21 03:12:38;;;;;;;2.88;0.80;;;8.50;69.00;;;;;;5015464;28;20088;-65
2022/04/21 03:15:06;;;;;;;2.58;1.20;;;8.50;69.00;;;;;;5012038;28;20133;-66
2022/04/21 03:17:35;;;;;;;3.55;1.45;;;8.60;69.10;;;;;;5016974;28;20045;-66
2022/04/21 03:20:03;;;;;;;2.80;1.30;;;8.60;69.20;;;;;;5009640;28;20172;-65
2022/04/21 03:25:15;;;;;;;3.90;2.10;;;8.60;69.40;;;;;;5022106;28;20034;-64
2022/04/21 03:27:44;;;;;;;5.45;2.13;;;8.60;69.50;;;;;;5023027;28;20483;-64
2022/04/21 03:30:11;;;;;;;6.43;1.92;;;8.60;69.50;;;;;;5024091;28;20050;-66
2022/04/21 03:32:42;;;;;;;2.28;1.38;;;8.50;69.80;;;;;;5021355;28;20068;-64
2022/04/21 03:35:09;;;;;;;4.90;2.22;;;8.50;70.10;;;;;;5020742;28;20050;-66
2022/04/21 03:37:36;;;;;;;4.55;2.25;;;8.50;69.90;;;;;;5020803;28;20060;-65
2022/04/21 03:40:04;;;;;;;5.18;1.92;;;8.50;70.00;;;;;;5023074;28;20048;-65
2022/04/21 03:42:31;;;;;;;3.85;1.95;;;8.50;70.10;;;;;;5038725;28;20529;-64
2022/04/21 03:44:58;;;;;;;6.03;2.58;;;8.50;70.10;;;;;;5041363;28;20045;-65
2022/04/21 03:47:25;;;;;;;5.03;1.80;;;8.50;70.10;;;;;;5037955;28;20037;-64
2022/04/21 03:49:54;;;;;;;4.25;1.50;;;8.40;70.20;;;;;;5048455;28;20577;-65
2022/04/21 03:52:21;;;;;;;4.30;1.55;;;8.40;70.20;;;;;;5051859;28;20037;-64
2022/04/21 03:54:48;;;;;;;4.95;2.22;;;8.40;70.30;;;;;;5047011;28;20076;-65
2022/04/21 03:57:15;;;;;;;4.38;1.70;;;8.40;70.40;;;;;;5051766;28;20545;-65
2022/04/21 03:59:42;;;;;;;5.72;1.98;;;8.50;70.40;;;;;;5051641;28;20473;-64
2022/04/21 04:02:09;;;;;;;3.70;1.70;;;8.50;70.40;;;;;;5049091;28;20045;-66
2022/04/21 04:04:37;;;;;;;4.20;1.80;;;8.50;70.50;;;;;;5050731;28;20084;-64
2022/04/21 04:13:00;;;;;;;3.83;1.45;;;8.30;70.70;;;;;;4946657;28;20396;-65
2022/04/21 04:15:27;;;;;;;4.60;1.65;;;8.20;70.90;;;;;;5027569;28;20060;-65
2022/04/21 04:17:54;;;;;;;3.65;1.45;;;8.20;70.90;;;;;;5049466;28;20124;-64
2022/04/21 04:20:21;;;;;;;3.47;1.88;;;8.20;70.90;;;;;;5046046;28;20507;-64
2022/04/21 04:22:49;;;;;;;3.78;2.15;;;8.20;71.10;;;;;;5050149;28;20506;-65
2022/04/21 04:25:16;;;;;;;4.05;1.92;;;8.20;71.20;;;;;;5050264;28;20037;-64
2022/04/21 04:27:43;;;;;;;3.85;1.80;;;8.20;71.10;;;;;;5050710;28;20529;-65
2022/04/21 04:30:11;;;;;;;6.38;2.08;;;8.20;71.10;;;;;;5051714;28;20047;-64
2022/04/21 04:32:38;;;;;;;3.42;1.80;;;8.20;71.20;;;;;;5050574;28;20122;-64
2022/04/21 04:35:06;;;;;;;4.22;2.05;;;8.10;71.30;;;;;;5048990;28;20483;-65
2022/04/21 04:37:33;;;;;;;3.65;1.50;;;8.10;71.40;;;;;;5050339;28;20140;-65
2022/04/21 04:40:01;;;;;;;4.20;1.50;;;8.10;71.30;;;;;;5050868;28;20044;-65
2022/04/21 04:42:28;;;;;;;3.92;1.70;;;8.20;71.20;;;;;;5041036;28;20064;-63
2022/04/21 04:47:36;;;;;;;5.03;1.83;;;8.30;70.90;;;;;;5039814;28;20042;-64
2022/04/21 04:50:04;;;;;;;3.72;2.00;;;8.30;70.90;;;;;;5039895;28;20045;-65
2022/04/21 04:52:31;;;;;;;5.13;2.10;;;8.30;70.90;;;;;;5035984;28;20050;-65
2022/04/21 04:54:58;;;;;;;3.83;1.75;;;8.40;70.90;;;;;;5038057;28;20133;-65
2022/04/21 04:57:26;;;;;;;4.85;2.13;;;8.40;70.90;;;;;;5037035;28;20041;-65
2022/04/21 04:59:53;;;;;;;4.50;2.22;;;8.40;71.10;;;;;;5025518;28;20073;-65
2022/04/21 05:02:20;;;;;;;5.30;2.58;;;8.40;71.30;;;;;;5026351;28;20047;-66
2022/04/21 05:04:47;;;;;;;5.80;2.63;;;8.40;71.20;;;;;;5038388;28;20049;-66
2022/04/21 05:07:14;;;;;;;3.97;2.28;;;8.40;71.10;;;;;;5039644;28;20099;-66
2022/04/21 05:09:41;;;;;;;4.25;2.17;;;8.40;71.10;;;;;;5039947;28;20484;-67
2022/04/21 05:12:10;;;;;;;7.25;1.92;;;8.50;71.10;;;;;;5036158;28;20080;-65
2022/04/21 05:14:38;;;;;;;5.65;1.98;;;8.50;71.00;;;;;;5037547;28;20033;-66
2022/04/21 05:17:05;;;;;;;4.90;2.50;;;8.50;71.30;;;;;;5034830;28;20506;-65
2022/04/21 05:19:33;;;;;;;4.60;2.15;;;8.60;71.40;;;;;;5033926;28;20121;-65
2022/04/21 05:22:03;;;;;;;5.47;2.67;;;8.50;71.40;;;;;;5035774;28;20406;-65
2022/04/21 05:24:31;;;;;;;3.85;1.58;;;8.50;71.50;;;;;;5035139;28;20131;-65
2022/04/21 05:26:59;;;;;;;7.18;2.28;;;8.60;71.50;;;;;;5034715;28;20046;-65
2022/04/21 05:32:18;;;;;;;5.18;1.92;;;8.60;71.50;;;;;;5038496;28;20044;-65
2022/04/21 05:34:46;;;;;;;3.38;1.88;;;8.60;71.60;;;;;;5025322;28;20105;-65
2022/04/21 05:37:14;;;;;;;3.55;2.00;;;8.60;71.70;;;;;;5039685;28;20056;-65
2022/04/21 05:39:41;;;;;;;5.13;2.28;;;8.60;71.70;;;;;;5035037;28;20115;-64
2022/04/21 05:42:10;;;;;;;3.85;1.90;;;8.60;71.70;;;;;;5026383;28;20292;-64
2022/04/21 05:44:38;;;;;;;3.95;2.13;;;8.70;71.90;;;;;;5029013;28;20084;-65
2022/04/21 05:47:05;;;;;;;9.38;2.05;;;8.70;71.90;;;;;;5029040;28;20067;-64
2022/04/21 05:49:34;;;;;;;6.88;2.25;;;8.70;71.90;;;;;;5032154;28;20080;-65
2022/04/21 05:52:03;;;;;;;5.50;2.13;;;8.70;71.80;;;;;;5026354;28;20137;-68
2022/04/21 05:54:31;;;;;;;5.45;2.30;;;8.70;71.80;;;;;;5023223;28;20045;-65
2022/04/21 05:56:59;;;;;;;7.43;2.22;;;8.70;71.90;;;;;;5028193;28;20042;-65
2022/04/21 05:59:29;;;;;;;6.18;2.30;;;8.80;72.00;;;;;;5030389;28;20196;-65
2022/04/21 06:01:56;;;;;;;5.18;2.63;;;8.80;71.90;;;;;;5025231;28;20324;-65
2022/04/21 06:04:23;;;;;;;5.57;2.78;;;8.80;71.90;;;;;;5027079;28;20123;-65
2022/04/21 06:06:52;;;;;;;7.25;2.22;;;8.90;71.90;;;;;;5028400;28;20047;-66
2022/04/21 06:09:20;;;;;;;5.20;2.58;;;8.90;71.90;;;;;;5029313;28;20124;-65
2022/04/21 06:11:49;;;;;;;10.15;3.20;;;8.90;72.10;;;;;;5020129;28;20057;-64
2022/04/21 06:14:16;;;;;;;7.90;3.20;;;8.90;72.20;;;;;;5028883;28;20045;-66
2022/04/21 06:16:43;;;;;;;6.20;2.78;;;8.90;72.30;;;;;;5029516;28;20061;-66
2022/04/21 06:19:10;;;;;;;8.30;3.05;;;8.90;72.30;;;;;;5025183;28;20033;-65
2022/04/21 06:21:40;;;;;;;6.13;3.05;;;9.00;72.30;;;;;;5034401;28;20033;-64
2022/04/21 06:24:10;;;;;;;8.57;2.80;;;9.00;72.30;;;;;;5025801;28;20041;-65
2022/04/21 06:26:38;;;;;;;6.45;2.47;;;9.00;72.50;;;;;;5028477;28;20037;-65
2022/04/21 06:29:05;;;;;;;6.53;2.80;;;9.10;72.50;;;;;;5022105;28;20041;-66
2022/04/21 06:31:36;;;;;;;5.18;2.67;;;9.10;72.40;;;;;;5025315;28;20069;-66
2022/04/21 06:34:03;;;;;;;4.70;2.28;;;9.20;72.30;;;;;;5026895;28;20042;-66
2022/04/21 06:36:30;;;;;;;6.43;2.78;;;9.20;72.20;;;;;;5025724;28;20033;-64
2022/04/21 06:38:57;;;;;;;7.72;3.13;;;9.20;72.00;;;;;;5025876;28;20052;-65
2022/04/21 06:41:25;;;;;;;4.63;2.40;;;9.30;71.80;;;;;;5027007;28;20703;-64
2022/04/21 06:49:22;;;;;;;5.35;2.78;;;9.40;71.20;;;;;;5029877;28;20049;-65
2022/04/21 06:51:48;;;;;;;6.25;2.78;;;9.50;71.20;;;;;;5021316;28;20263;-65
2022/04/21 06:54:15;;;;;;;5.15;2.55;;;9.50;71.40;;;;;;5031645;28;20060;-65
2022/04/21 06:56:48;;;;;;;5.93;2.53;;;9.60;71.50;;;;;;5031525;28;20045;-65
2022/04/21 06:59:15;;;;;;;6.85;2.72;;;9.60;71.40;;;;;;5027735;28;20044;-64
2022/04/21 07:01:42;;;;;;;5.75;2.58;;;9.60;71.40;;;;;;5027969;28;20789;-64
2022/04/21 07:04:10;;;;;;;4.72;2.45;;;9.70;71.30;;;;;;5032394;28;20144;-66
2022/04/21 07:06:37;;;;;;;6.68;2.90;;;9.70;71.00;;;;;;5009453;28;20204;-64
2022/04/21 07:09:04;;;;;;;5.18;2.20;;;9.80;70.90;;;;;;5030935;28;20045;-65
2022/04/21 07:11:31;;;;;;;4.85;2.38;;;9.90;70.50;;;;;;5030875;28;20194;-64
2022/04/21 07:13:59;;;;;;;5.20;2.35;;;10.00;70.30;;;;;;5014082;28;20132;-64
2022/04/21 07:16:26;;;;;;;9.25;3.17;;;10.00;70.20;;;;;;5032593;28;20042;-65
2022/04/21 07:18:54;;;;;;;6.90;2.35;;;10.10;69.90;;;;;;5030716;28;20064;-66
2022/04/21 07:21:21;;;;;;;8.05;2.65;;;10.20;69.80;;;;;;5029764;28;20046;-65
2022/04/21 07:23:47;;;;;;;5.30;2.08;;;10.20;69.50;;;;;;5031788;28;20041;-65
2022/04/21 07:26:15;;;;;;;7.07;2.72;;;10.30;69.30;;;;;;5032810;28;20422;-65
2022/04/21 07:28:44;;;;;;;4.97;2.33;;;10.40;69.00;;;;;;5029544;28;20045;-65
2022/04/21 07:31:13;;;;;;;4.97;2.97;;;10.40;68.90;;;;;;5030144;28;20094;-65
2022/04/21 07:33:40;;;;;;;4.75;2.17;;;10.40;68.80;;;;;;5026903;28;20049;-65
2022/04/21 07:36:07;;;;;;;5.40;2.80;;;10.40;68.70;;;;;;5034532;28;20133;-64
2022/04/21 07:38:36;;;;;;;4.82;2.30;;;10.40;68.70;;;;;;5028711;28;20052;-65
2022/04/21 07:41:03;;;;;;;6.63;2.92;;;10.40;68.40;;;;;;5036043;28;20359;-65
2022/04/21 07:43:33;;;;;;;6.35;3.05;;;10.40;68.50;;;;;;5045190;28;20065;-65
2022/04/21 07:46:00;;;;;;;5.20;2.67;;;10.50;68.40;;;;;;5044195;28;20084;-65
2022/04/21 07:49:44;;;;;;;6.90;2.90;;;10.60;68.40;;;;;;5043438;28;20616;-65
2022/04/21 07:51:15;;;;;;;6.85;2.78;;;10.70;67.80;;;;;;5042174;28;20047;-65
2022/04/21 07:53:41;;;;;;;7.03;3.17;;;10.70;67.60;;;;;;5045554;28;22738;-64
2022/04/21 07:56:08;;;;;;;5.82;2.15;;;10.70;67.70;;;;;;5044775;28;20395;-65
2022/04/21 07:58:35;;;;;;;6.28;2.08;;;10.90;67.40;;;;;;5043779;28;20052;-65
2022/04/21 08:01:02;;;;;;;9.07;2.88;;;10.90;67.50;;;;;;5041250;28;20123;-65
2022/04/21 08:03:36;;;;;;;5.55;2.50;;;11.10;67.30;;;;;;5023604;28;20059;-65
2022/04/21 08:06:04;;;;;;;4.93;2.38;;;11.20;66.90;;;;;;5042762;28;20464;-64
2022/04/21 08:08:31;;;;;;;4.90;2.10;;;11.20;67.00;;;;;;5042148;28;20040;-65
2022/04/21 08:10:58;;;;;;;3.53;1.83;;;11.40;66.10;;;;;;5043487;28;20048;-67
2022/04/21 08:13:26;;;;;;;5.32;2.50;;;11.40;65.80;;;;;;5042708;28;20070;-66
2022/04/21 08:15:54;;;;;;;4.00;2.05;;;11.50;66.00;;;;;;5042663;28;20219;-65
2022/04/21 08:18:21;;;;;;;6.15;2.38;;;11.60;65.70;;;;;;5042740;28;20103;-64
2022/04/21 08:20:52;;;;;;;5.30;2.15;;;11.70;65.10;;;;;;5044588;28;20071;-65
2022/04/21 08:23:19;;;;;;;5.15;2.20;;;11.70;65.10;;;;;;5043608;28;20112;-66
2022/04/21 08:33:59;;;;;;;4.35;2.20;;;12.20;64.20;;;;;;5041496;28;20065;-66
2022/04/21 08:36:27;;;;;;;4.20;1.90;;;12.40;63.60;;;;;;5043435;28;20045;-65
2022/04/21 08:38:54;;;;;;;5.68;2.00;;;12.50;63.20;;;;;;5042469;28;20065;-66
2022/04/21 08:41:27;;;;;;;4.38;2.13;;;12.60;62.80;;;;;;5040094;28;20194;-65
2022/04/21 08:43:56;;;;;;;3.92;1.95;;;12.60;62.30;;;;;;5041866;28;20112;-66
2022/04/21 08:46:26;;;;;;;6.15;1.90;;;12.60;61.90;;;;;;5039641;28;21639;-65
2022/04/21 08:48:54;;;;;;;4.72;1.83;;;12.70;61.50;;;;;;5040676;28;20040;-65
2022/04/21 08:51:21;;;;;;;3.63;1.65;;;12.70;61.20;;;;;;5047960;28;20037;-66
2022/04/21 08:53:51;;;;;;;6.53;1.83;;;12.80;61.10;;;;;;5045914;28;20040;-66
2022/04/21 08:56:19;;;;;;;5.75;2.10;;;12.80;61.40;;;;;;5044570;28;20111;-65
2022/04/21 08:58:48;;;;;;;4.65;2.13;;;12.90;60.70;;;;;;5040769;28;20080;-65
2022/04/21 09:01:17;;;;;;;2.60;1.38;;;12.90;61.10;;;;;;5040385;28;20123;-66
2022/04/21 09:03:47;;;;;;;4.45;2.15;;;13.00;61.10;;;;;;5043207;28;20043;-65
2022/04/21 09:06:14;;;;;;;4.20;2.38;;;13.10;60.60;;;;;;5044210;28;20037;-64
2022/04/21 09:08:40;;;;;;;4.03;1.73;;;13.10;60.70;;;;;;5041326;28;20055;-67
2022/04/21 09:11:10;;;;;;;4.18;1.90;;;13.20;60.40;;;;;;5041467;28;20042;-67
2022/04/21 09:13:38;;;;;;;4.30;1.65;;;13.30;60.60;;;;;;5040310;28;20052;-66
2022/04/21 09:16:07;;;;;;;3.70;2.00;;;13.40;60.50;;;;;;5042369;28;20041;-67
2022/04/21 09:18:41;;;;;;;6.57;1.77;;;13.50;59.60;;;;;;5020763;28;20037;-66
2022/04/21 09:21:10;;;;;;;5.38;1.67;;;13.60;59.40;;;;;;5049304;28;20485;-66
2022/04/21 09:23:37;;;;;;;6.28;1.98;;;13.70;58.90;;;;;;5047525;28;20501;-65
2022/04/21 09:26:13;;;;;;;5.72;2.00;;;13.80;58.30;;;;;;5028671;28;20052;-66
2022/04/21 09:28:40;;;;;;;4.68;1.90;;;13.90;58.80;;;;;;5049156;28;20475;-65
2022/04/21 09:31:08;;;;;;;4.45;2.08;;;13.90;58.10;;;;;;5050330;28;20107;-66
2022/04/21 09:33:37;;;;;;;5.28;1.95;;;14.00;57.80;;;;;;5046242;28;20037;-66
2022/04/21 09:36:05;;;;;;;4.57;1.92;;;14.00;57.30;;;;;;5043127;28;20449;-66
2022/04/21 09:38:34;;;;;;;5.32;2.42;;;14.10;56.80;;;;;;5041600;28;20580;-66
2022/04/21 09:41:11;;;;;;;5.00;1.70;;;14.10;56.90;;;;;;5042074;28;20085;-66
2022/04/21 09:43:41;;;;;;;4.00;1.80;;;14.20;56.40;;;;;;5039211;28;20080;-66
2022/04/21 09:46:15;;;;;;;4.40;1.58;;;14.20;56.80;;;;;;5041997;28;20129;-65
2022/04/21 09:48:43;;;;;;;3.78;1.60;;;14.40;57.50;;;;;;5042504;28;20769;-65
2022/04/21 09:51:12;;;;;;;5.07;2.20;;;14.50;57.80;;;;;;5040252;28;20052;-65
2022/04/21 09:53:50;;;;;;;4.72;1.35;;;14.60;57.20;;;;;;5040993;28;20056;-65
2022/04/21 09:56:19;;;;;;;4.13;2.28;;;14.70;56.80;;;;;;5042403;28;20128;-66
2022/04/21 09:58:47;;;;;;;4.82;1.95;;;14.80;56.80;;;;;;5047863;28;20049;-64
2022/04/21 10:01:14;;;;;;;2.72;1.33;;;14.90;56.40;;;;;;5044138;28;20055;-67
2022/04/21 10:03:43;;;;;;;6.60;1.98;;;15.00;56.60;;;;;;5045925;28;20119;-65
2022/04/21 10:06:11;;;;;;;2.75;1.40;;;15.10;56.30;;;;;;5046691;28;20602;-66
2022/04/21 10:08:41;;;;;;;4.10;1.30;;;15.10;55.80;;;;;;5049144;28;20037;-65
2022/04/21 10:11:09;;;;;;;3.90;1.40;;;15.20;55.90;;;;;;5048248;28;20057;-66
2022/04/21 10:13:38;;;;;;;3.72;1.52;;;15.30;55.00;;;;;;5042323;28;20043;-66
2022/04/21 10:16:07;;;;;;;2.92;1.15;;;15.20;55.30;;;;;;5040546;28;20045;-66
2022/04/21 10:18:34;;;;;;;5.78;1.40;;;15.30;54.40;;;;;;5025177;28;20045;-66
2022/04/21 10:21:03;;;;;;;4.22;1.75;;;15.20;54.70;;;;;;5044481;28;20068;-65
2022/04/21 10:23:31;;;;;;;4.15;1.90;;;15.30;54.40;;;;;;5043295;28;20033;-66
2022/04/21 10:26:00;;;;;;;7.45;1.65;;;15.30;54.30;;;;;;5044510;28;20051;-65
2022/04/21 10:28:41;;;;;;;5.47;1.48;;;15.40;54.20;;;;;;5025178;28;20040;-66
2022/04/21 10:31:30;;;;;;;3.78;1.52;;;15.40;53.70;;;;;;5046834;28;20036;-65
2022/04/21 10:33:59;;;;;;;4.00;1.30;;;15.40;54.00;;;;;;5045370;28;20045;-64
2022/04/21 10:36:36;;;;;;;6.93;1.85;;;15.40;53.90;;;;;;5045999;28;20040;-66
2022/04/21 10:39:13;;;;;;;3.38;1.45;;;15.50;54.20;;;;;;5045882;28;20060;-66
2022/04/21 10:41:40;;;;;;;3.35;1.38;;;15.50;54.30;;;;;;5043476;28;20053;-66
2022/04/21 10:44:16;;;;;;;4.05;1.60;;;15.60;54.40;;;;;;5044207;28;20039;-66
2022/04/21 10:46:43;;;;;;;4.20;1.65;;;15.60;54.10;;;;;;5039667;28;20048;-66
2022/04/21 10:49:12;;;;;;;4.45;1.92;;;15.70;54.10;;;;;;5043721;28;20613;-67
2022/04/21 10:58:51;;;;;;;5.70;2.22;;;15.60;53.40;;;;;;5046355;28;20102;-65
2022/04/21 11:01:32;;;;;;;3.88;1.55;;;15.60;53.30;;;;;;5040504;28;20056;-66
2022/04/21 11:04:13;;;;;;;3.40;1.50;;;15.50;53.70;;;;;;5041628;28;20041;-67
2022/04/21 11:06:45;;;;;;;3.85;1.50;;;15.60;54.30;;;;;;5043605;28;20048;-66
2022/04/21 11:09:38;;;;;;;4.97;2.20;;;15.60;54.10;;;;;;5042899;28;20040;-67
2022/04/21 11:12:06;;;;;;;5.18;2.20;;;15.70;53.80;;;;;;5045730;28;20036;-67
2022/04/21 11:14:34;;;;;;;4.53;2.05;;;15.70;53.90;;;;;;5045429;28;20036;-66
2022/04/21 11:17:04;;;;;;;4.68;1.73;;;15.70;53.90;;;;;;5042881;28;20048;-66
2022/04/21 11:19:40;;;;;;;3.13;1.35;;;15.80;53.80;;;;;;5036500;28;20041;-65
2022/04/21 11:22:09;;;;;;;4.43;1.75;;;15.80;54.00;;;;;;5048423;28;20049;-68
2022/04/21 11:25:03;;;;;;;5.85;2.10;;;16.00;54.40;;;;;;5045934;28;20431;-66
2022/04/21 11:27:32;;;;;;;3.75;1.70;;;16.10;54.40;;;;;;5050668;28;20048;-67
2022/04/21 11:30:01;;;;;;;3.80;1.52;;;16.10;54.60;;;;;;5048195;28;20041;-66
2022/04/21 11:32:30;;;;;;;4.47;1.53;;;16.20;54.20;;;;;;5042875;28;20040;-67
2022/04/21 11:35:03;;;;;;;5.43;1.95;;;16.30;53.80;;;;;;5048426;28;20510;-67
2022/04/21 11:37:50;;;;;;;3.22;1.58;;;16.40;53.80;;;;;;5050016;28;20045;-68
2022/04/21 11:40:28;;;;;;;4.50;2.05;;;16.40;53.90;;;;;;5043022;28;20041;-67
2022/04/21 11:42:57;;;;;;;3.47;1.80;;;16.50;53.50;;;;;;5042483;28;20406;-67
2022/04/21 11:45:26;;;;;;;3.50;1.70;;;16.60;53.40;;;;;;5043103;28;20055;-66
2022/04/21 11:47:55;;;;;;;2.95;1.50;;;16.60;53.10;;;;;;5043722;28;21205;-67
2022/04/21 11:50:27;;;;;;;2.67;1.63;;;16.60;52.60;;;;;;5039820;28;20053;-64
2022/04/21 11:52:55;;;;;;;4.00;1.42;;;16.60;52.50;;;;;;5042877;28;20175;-66
2022/04/21 11:55:27;;;;;;;2.72;1.27;;;16.60;52.20;;;;;;5042419;28;20057;-66
2022/04/21 11:57:54;;;;;;;3.55;1.55;;;16.60;52.50;;;;;;5042824;28;20051;-66
2022/04/21 12:08:35;;;;;;;2.80;1.33;;;16.50;52.10;;;;;;5048664;28;20045;-67
2022/04/21 12:11:08;;;;;;;3.90;1.10;;;16.60;52.20;;;;;;5029353;28;20118;-67
2022/04/21 12:13:35;;;;;;;2.83;1.38;;;16.50;52.40;;;;;;5044165;28;20168;-66
2022/04/21 12:16:02;;;;;;;2.83;1.40;;;16.40;52.00;;;;;;5029429;28;20049;-66
2022/04/21 12:18:45;;;;;;;2.75;1.40;;;16.30;51.90;;;;;;5019054;28;20060;-67
2022/04/21 12:21:13;;;;;;;4.35;1.83;;;16.30;52.10;;;;;;5041030;28;20040;-66
2022/04/21 12:23:40;;;;;;;3.05;1.40;;;16.30;51.60;;;;;;5042981;28;20045;-66
2022/04/21 12:26:07;;;;;;;3.88;1.15;;;16.20;51.50;;;;;;5041538;28;20071;-66
2022/04/21 12:28:47;;;;;;;2.80;1.13;;;16.20;51.10;;;;;;5037235;28;20059;-66
2022/04/21 12:31:19;;;;;;;2.22;0.90;;;16.20;51.40;;;;;;5042668;28;20037;-66
2022/04/21 12:33:50;;;;;;;2.22;0.75;;;16.20;51.60;;;;;;5044532;28;20045;-67
2022/04/21 12:36:26;;;;;;;2.38;1.02;;;16.30;51.90;;;;;;5042181;28;20042;-66
2022/04/21 12:38:56;;;;;;;1.52;0.80;;;16.30;52.00;;;;;;5042599;28;20436;-70
2022/04/21 12:41:24;;;;;;;;;;;16.40;52.30;;;;;;5039425;28;20041;-66
2022/04/21 12:43:51;;;;;;;2.25;0.95;;;16.40;52.30;;;;;;5028215;28;19925;-66
2022/04/21 12:46:20;;;;;;;3.17;1.13;;;16.50;52.10;;;;;;5026700;28;20053;-66
2022/04/21 12:48:51;;;;;;;2.05;1.10;;;16.60;52.00;;;;;;5029219;28;20483;-67
2022/04/21 12:51:19;;;;;;;3.75;1.13;;;16.60;51.80;;;;;;5029254;28;20474;-67
2022/04/21 12:53:55;;;;;;;2.45;1.05;;;16.70;51.60;;;;;;5025444;28;20045;-66
2022/04/21 12:56:33;;;;;;;3.22;1.40;;;16.70;51.70;;;;;;5021393;28;20073;-65
2022/04/21 12:59:00;;;;;;;2.70;0.90;;;16.70;51.60;;;;;;5003779;28;20047;-66
2022/04/21 13:01:28;;;;;;;2.15;0.98;;;16.80;51.20;;;;;;5016917;28;20210;-66
2022/04/21 13:03:59;;;;;;;2.30;1.08;;;16.90;51.40;;;;;;5023908;28;20045;-67
2022/04/21 13:06:27;;;;;;;2.28;1.20;;;16.90;51.30;;;;;;5025429;28;20041;-66
2022/04/21 13:08:55;;;;;;;2.03;0.90;;;16.90;50.90;;;;;;5029792;28;20064;-66
2022/04/21 13:11:22;;;;;;;2.33;0.70;;;16.90;50.90;;;;;;5030090;28;20393;-66
2022/04/21 13:13:50;;;;;;;1.63;0.80;;;16.90;50.50;;;;;;5011686;28;20148;-67
2022/04/21 13:16:17;;;;;;;2.25;1.10;;;16.80;50.30;;;;;;5029507;28;20116;-67
2022/04/21 13:18:44;;;;;;;4.57;1.10;;;16.90;50.30;;;;;;5026781;28;20037;-66
2022/04/21 13:23:57;;;;;;;2.25;1.00;;;16.70;50.40;;;;;;5018964;28;20037;-66
2022/04/21 13:26:28;;;;;;;2.05;0.85;;;16.60;50.30;;;;;;5018617;28;20064;-66
2022/04/21 13:28:57;;;;;;;1.02;0.60;;;16.60;50.50;;;;;;5020896;28;20060;-66
2022/04/21 13:34:10;;;;;;;1.60;1.00;;;16.50;50.90;;;;;;5027852;28;21569;-67
2022/04/21 13:36:39;;;;;;;2.10;1.10;;;16.50;51.10;;;;;;5025071;28;20045;-67
2022/04/21 13:39:06;;;;;;;2.03;1.17;;;16.40;51.50;;;;;;5023723;28;20491;-67
2022/04/21 13:41:33;;;;;;;2.15;1.15;;;16.40;51.80;;;;;;5009044;28;20049;-67
2022/04/21 13:44:00;;;;;;;2.38;0.90;;;16.30;52.00;;;;;;5024803;28;20041;-67
2022/04/21 13:46:28;;;;;;;2.70;1.38;;;16.30;52.00;;;;;;5028258;28;20049;-67
2022/04/21 13:48:57;;;;;;;2.70;1.30;;;16.30;52.00;;;;;;5029644;28;20085;-67
2022/04/21 13:51:24;;;;;;;3.53;1.50;;;16.30;52.20;;;;;;5027928;28;20038;-66
2022/04/21 13:53:54;;;;;;;5.25;1.30;;;16.20;52.70;;;;;;5026691;28;20053;-66
2022/04/21 13:56:22;;;;;;;2.78;1.50;;;16.20;52.70;;;;;;5028163;28;20045;-67
2022/04/21 13:58:49;;;;;;;4.88;1.58;;;16.10;53.10;;;;;;5011268;28;20141;-66
2022/04/21 14:01:17;;;;;;;3.95;1.35;;;16.10;53.30;;;;;;5025709;28;20037;-66